• Join FlightAware (Why Join?)
  • Login
  • US Flag 
08:49AM EST


 

Airport Tracker/Info


-or-


 

Live Flight TrackerFlight Track Log ✈ EZY2759 ✈ 07-Apr-2013 ✈ LIMC / MXP - LEBL / BCN

Flight Track Log - Related Links

Times and Time Zones

All times are in EDT time to prevent confusion due to time zone crossing. See the EZY2759 flight status page for this flight to view local times or setup timezone preferences in your user account.

Time Position Orientation Groundspeed Altitude Reporting Facility
EDT Latitude Longitude Course Direction KTS MPH feet Rate Location/Type
12:41AM 45.1911 7.9782 230° Southwest  Level Estimated
12:42AM 45.1419 7.8956 230° Southwest  Level Estimated
12:43AM 45.0927 7.8131 230° Southwest  Level Estimated
12:44AM 45.0435 7.7308 230° Southwest  Level Estimated
12:45AM 44.9941 7.6487 230° Southwest  Level Estimated
12:46AM 44.9448 7.5666 230° Southwest  Level Estimated
12:47AM 44.8954 7.4847 230° Southwest  Level Estimated
12:48AM 44.8407 7.3945 230° Southwest  Level Estimated
12:49AM 44.7860 7.3044 229° Southwest  Level Estimated
12:50AM 44.7312 7.2145 229° Southwest  Level Estimated
12:51AM 44.6764 7.1248 229° Southwest  Level Estimated
12:52AM 44.6214 7.0352 229° Southwest  Level Estimated
12:53AM 44.5665 6.9458 229° Southwest  Level Estimated
12:54AM 44.5114 6.8566 229° Southwest  Level Estimated
12:55AM 44.4563 6.7675 229° Southwest  Level Estimated
12:56AM 44.4011 6.6787 229° Southwest  Level Estimated
12:57AM 44.3458 6.5899 229° Southwest  Level Estimated
12:58AM 44.2905 6.5014 229° Southwest  Level Estimated
12:59AM 44.2351 6.4130 229° Southwest  Level Estimated
01:00AM 44.1796 6.3248 229° Southwest  Level Estimated
01:01AM 44.1241 6.2367 229° Southwest  Level Estimated
01:02AM 44.0685 6.1488 229° Southwest  Level Estimated
01:03AM 44.0128 6.0611 229° Southwest  Level Estimated
01:04AM 43.9570 5.9736 229° Southwest  Level Estimated
01:05AM 43.9012 5.8862 228° Southwest  Level Estimated
01:06AM 43.8454 5.7990 228° Southwest  Level Estimated
01:07AM 43.7894 5.7119 228° Southwest  Level Estimated
01:08AM 43.7334 5.6250 228° Southwest  Level Estimated
01:09AM 43.6773 5.5382 228° Southwest  Level Estimated
01:10AM 43.6212 5.4517 228° Southwest  Level Estimated
01:11AM 43.5650 5.3653 228° Southwest  Level Estimated
01:12AM 43.5087 5.2790 228° Southwest  Level Estimated
01:13AM 43.4524 5.1929 228° Southwest  Level Estimated
01:14AM 43.3960 5.1070 228° Southwest  Level Estimated
01:15AM 43.3395 5.0212 228° Southwest  Level Estimated
01:16AM 43.2830 4.9356 228° Southwest  Level Estimated
01:17AM 43.2264 4.8501 228° Southwest  Level Estimated
01:18AM 43.1698 4.7648 228° Southwest  Level Estimated
01:19AM 43.1131 4.6797 228° Southwest  Level Estimated
01:20AM 43.0563 4.5947 228° Southwest  Level Estimated
01:21AM 42.9995 4.5099 228° Southwest  Level Estimated
01:22AM 42.9426 4.4252 227° Southwest  Level Estimated
01:23AM 42.8856 4.3407 227° Southwest  Level Estimated
01:24AM 42.8229 4.2479 227° Southwest  Level Estimated
01:25AM 42.7601 4.1554 227° Southwest  Level Estimated
01:26AM 42.6972 4.0630 227° Southwest  Level Estimated
01:27AM 42.6342 3.9707 227° Southwest  Level Estimated
01:28AM 42.5712 3.8787 227° Southwest  Level Estimated
01:29AM 42.5081 3.7868 227° Southwest  Level Estimated
01:30AM 42.4449 3.6952 227° Southwest  Level Estimated
01:31AM 42.3816 3.6037 227° Southwest  Level Estimated
01:32AM 42.3183 3.5124 227° Southwest  Level Estimated
01:33AM 42.2549 3.4213 227° Southwest  Level Estimated
01:34AM 42.1915 3.3304 227° Southwest  Level Estimated
01:35AM 42.1279 3.2397 227° Southwest  Level Estimated
01:36AM 42.0643 3.1491 227° Southwest  Level Estimated
01:37AM 42.0006 3.0587 227° Southwest  Level Estimated
01:38AM 41.9369 2.9685 226° Southwest  Level Estimated
01:39AM 41.8731 2.8785 226° Southwest  Level Estimated
01:40AM 41.8092 2.7887 226° Southwest  Level Estimated
01:41AM 41.7452 2.6990 226° Southwest  Level Estimated
01:42AM 41.6812 2.6095 226° Southwest  Level Estimated
01:43AM 41.6171 2.5202 226° Southwest  Level Estimated
01:44AM 41.5529 2.4311 226° Southwest  Level Estimated
01:45AM 41.4887 2.3421 226° Southwest  Level Estimated
01:46AM 41.4244 2.2534 226° Southwest  Level Estimated
01:47AM 41.3600 2.1648 226° Southwest  Level Estimated
01:48AM 41.2971 2.0785 226° Southwest  Level Estimated
01:49AM 41.2971 2.0785 124° Southeast  Level Estimated
01:50AM 41.2971 2.0785 124° Southeast  Level Estimated
01:51AM 41.2971 2.0785 124° Southeast  Level Estimated
01:52AM 41.2971 2.0785 124° Southeast  Level Estimated
01:53AM 41.2971 2.0785 124° Southeast  Level Estimated
01:54AM 41.2971 2.0785 124° Southeast  Level Estimated